Time;durP1;ratioP1;P1;durP2;ratioP2;P2;SDS_P1;SDS_P2;PMS_P1;PMS_P2;Temp;Humidity;BMP_temperature;BMP_pressure;BME280_temperature;BME280_humidity;BME280_pressure;Samples;Min_cycle;Max_cycle;Signal;HPM_P1;HPM_P2
2021/10/12 00:01:19;;;;;;;17.10;8.93;;;9.90;99.90;;;;;;5021099;28;20724;-70
2021/10/12 00:03:49;;;;;;;20.40;9.23;;;9.90;99.90;;;;;;5028615;28;20220;-70
2021/10/12 00:06:20;;;;;;;21.40;9.43;;;9.90;99.90;;;;;;5021818;28;20224;-70
2021/10/12 00:08:49;;;;;;;17.73;8.70;;;9.90;99.90;;;;;;5025458;28;20729;-70
2021/10/12 00:11:17;;;;;;;17.40;8.80;;;9.90;99.90;;;;;;5021489;28;20201;-70
2021/10/12 00:13:47;;;;;;;19.40;9.10;;;9.90;99.90;;;;;;4997784;28;20193;-70
2021/10/12 00:16:16;;;;;;;16.37;8.93;;;9.90;99.90;;;;;;5017926;28;20425;-70
2021/10/12 00:19:36;;;;;;;17.97;9.33;;;9.90;99.90;;;;;;5026019;28;20267;-70
2021/10/12 00:22:58;;;;;;;17.97;8.80;;;9.90;99.90;;;;;;5022100;28;20205;-69
2021/10/12 00:26:17;;;;;;;21.37;9.07;;;9.90;99.90;;;;;;5021922;28;20221;-70
2021/10/12 00:29:36;;;;;;;17.63;9.07;;;9.90;99.90;;;;;;5029723;28;20275;-70
2021/10/12 00:32:55;;;;;;;14.73;8.30;;;9.90;99.90;;;;;;5017956;28;20576;-70
2021/10/12 00:36:15;;;;;;;18.97;9.37;;;9.80;99.90;;;;;;5026457;28;20217;-70
2021/10/12 00:39:35;;;;;;;20.23;8.50;;;9.80;99.90;;;;;;5027361;28;20209;-70
2021/10/12 00:42:55;;;;;;;16.73;8.40;;;9.80;99.90;;;;;;5029951;28;20304;-70
2021/10/12 00:46:15;;;;;;;17.07;8.47;;;9.70;99.90;;;;;;5026800;28;20244;-70
2021/10/12 00:49:35;;;;;;;14.53;7.93;;;9.70;99.90;;;;;;5029881;28;20199;-70
2021/10/12 00:52:54;;;;;;;15.83;8.50;;;9.70;99.90;;;;;;5029424;28;20260;-70
2021/10/12 00:56:16;;;;;;;14.17;8.40;;;9.70;99.90;;;;;;5028188;28;20201;-70
2021/10/12 00:59:37;;;;;;;18.43;8.30;;;9.70;99.90;;;;;;5024143;28;20215;-70
2021/10/12 01:02:56;;;;;;;14.90;7.83;;;9.70;99.90;;;;;;5026276;28;20668;-69
2021/10/12 01:06:16;;;;;;;13.67;8.20;;;9.60;99.90;;;;;;5027900;28;20256;-70
2021/10/12 01:09:35;;;;;;;16.10;7.90;;;9.60;99.90;;;;;;5029298;28;20249;-70
2021/10/12 01:12:56;;;;;;;16.10;7.33;;;9.50;99.90;;;;;;5024459;28;20254;-70
2021/10/12 01:16:17;;;;;;;13.53;7.13;;;9.60;99.90;;;;;;5024927;28;20248;-70
2021/10/12 01:19:37;;;;;;;20.13;7.57;;;9.60;99.90;;;;;;5022161;28;20240;-70
2021/10/12 01:22:58;;;;;;;18.47;8.07;;;9.60;99.90;;;;;;5019422;28;20225;-70
2021/10/12 01:26:17;;;;;;;17.40;7.87;;;9.50;99.90;;;;;;5028613;28;20635;-70
2021/10/12 01:29:36;;;;;;;17.17;8.00;;;9.50;99.90;;;;;;5026881;28;20576;-70
2021/10/12 01:32:55;;;;;;;16.47;7.50;;;9.50;99.90;;;;;;5025631;28;20334;-70
2021/10/12 01:36:15;;;;;;;11.23;6.77;;;9.50;99.90;;;;;;5023282;28;20676;-70
2021/10/12 01:39:36;;;;;;;16.93;7.57;;;9.40;99.90;;;;;;5023974;28;20240;-69
2021/10/12 01:42:58;;;;;;;20.73;7.37;;;9.40;99.90;;;;;;5020124;28;20228;-70
2021/10/12 01:46:17;;;;;;;16.67;7.30;;;9.40;99.90;;;;;;5022333;28;20718;-70
2021/10/12 01:49:36;;;;;;;11.73;6.80;;;9.40;99.90;;;;;;5027581;28;20324;-70
2021/10/12 01:52:56;;;;;;;19.50;7.23;;;9.40;99.90;;;;;;5020147;28;20324;-70
2021/10/12 01:56:17;;;;;;;15.17;6.87;;;9.50;99.90;;;;;;5027050;28;20560;-70
2021/10/12 01:59:36;;;;;;;18.13;6.97;;;9.50;99.90;;;;;;5026054;28;20208;-69
2021/10/12 02:02:56;;;;;;;16.83;7.17;;;9.50;99.90;;;;;;5026270;28;20256;-70
2021/10/12 02:06:18;;;;;;;15.37;7.00;;;9.50;99.90;;;;;;5028023;28;20641;-70
2021/10/12 02:09:38;;;;;;;11.90;6.63;;;9.50;99.90;;;;;;5027722;28;20244;-70
2021/10/12 02:12:59;;;;;;;14.40;7.43;;;9.40;99.90;;;;;;5022824;28;20619;-70
2021/10/12 02:16:18;;;;;;;13.47;6.73;;;9.40;99.90;;;;;;5022116;28;20615;-70
2021/10/12 02:19:37;;;;;;;19.03;6.97;;;9.40;99.90;;;;;;5027846;28;20219;-70
2021/10/12 02:22:56;;;;;;;13.17;6.90;;;9.50;99.90;;;;;;5022980;28;20727;-70
2021/10/12 02:26:15;;;;;;;14.67;7.50;;;9.50;99.90;;;;;;5025434;28;20200;-70
2021/10/12 02:29:36;;;;;;;12.40;7.10;;;9.60;99.90;;;;;;5024560;28;20293;-70
2021/10/12 02:32:55;;;;;;;14.03;7.23;;;9.60;99.90;;;;;;5019274;28;20204;-70
2021/10/12 02:36:16;;;;;;;14.10;7.40;;;9.60;99.90;;;;;;5021456;28;20639;-70
2021/10/12 02:39:37;;;;;;;16.67;7.30;;;9.70;99.90;;;;;;5024992;28;20311;-70
2021/10/12 02:42:56;;;;;;;12.37;6.77;;;9.70;99.90;;;;;;5018401;28;20236;-70
2021/10/12 02:46:16;;;;;;;17.00;7.30;;;9.70;99.90;;;;;;5024106;28;20355;-70
2021/10/12 02:49:35;;;;;;;15.73;7.20;;;9.70;99.90;;;;;;5022143;28;20231;-69
2021/10/12 02:52:54;;;;;;;13.40;6.90;;;9.70;99.90;;;;;;5024208;28;20205;-70
2021/10/12 02:56:13;;;;;;;17.53;7.57;;;9.70;99.90;;;;;;5021470;28;20324;-70
2021/10/12 02:59:32;;;;;;;17.63;7.30;;;9.70;99.90;;;;;;5019005;28;20303;-70
2021/10/12 03:02:52;;;;;;;15.67;7.40;;;9.70;99.90;;;;;;5022347;28;20232;-70
2021/10/12 03:06:13;;;;;;;17.43;7.70;;;9.70;99.90;;;;;;5022772;28;20200;-70
2021/10/12 03:09:33;;;;;;;12.57;7.03;;;9.70;99.90;;;;;;5024293;28;20312;-70
2021/10/12 03:12:52;;;;;;;14.93;6.97;;;9.70;99.90;;;;;;5024474;28;20572;-69
2021/10/12 03:16:11;;;;;;;17.50;6.90;;;9.70;99.90;;;;;;5020143;28;20250;-70
2021/10/12 03:19:32;;;;;;;11.27;6.60;;;9.70;99.90;;;;;;5024991;28;20312;-70
2021/10/12 03:22:52;;;;;;;11.40;6.93;;;9.80;99.90;;;;;;5022938;28;20300;-70
2021/10/12 03:26:11;;;;;;;12.90;6.80;;;9.80;99.90;;;;;;5024366;28;20305;-70
2021/10/12 03:29:30;;;;;;;13.60;6.80;;;9.90;99.90;;;;;;5018771;28;20208;-70
2021/10/12 03:32:49;;;;;;;13.30;6.63;;;9.90;99.90;;;;;;5020706;28;21011;-70
2021/10/12 03:36:17;;;;;;;12.00;6.73;;;10.00;99.90;;;;;;5023673;28;20249;-70
2021/10/12 03:39:36;;;;;;;12.97;6.57;;;10.00;99.90;;;;;;5029349;28;20205;-70
2021/10/12 03:42:56;;;;;;;15.33;6.77;;;10.00;99.90;;;;;;5024739;28;20259;-69
2021/10/12 03:46:15;;;;;;;14.17;7.00;;;10.10;99.90;;;;;;5023861;28;20271;-70
2021/10/12 03:49:34;;;;;;;12.07;6.57;;;10.10;99.90;;;;;;5022147;28;20700;-70
2021/10/12 03:52:54;;;;;;;9.20;7.00;;;10.00;99.90;;;;;;5018755;28;20219;-70
2021/10/12 03:56:13;;;;;;;14.33;6.73;;;10.00;99.90;;;;;;5022028;28;20262;-70
2021/10/12 03:59:32;;;;;;;15.57;6.93;;;10.00;99.90;;;;;;5025049;28;20235;-70
2021/10/12 04:02:54;;;;;;;13.07;6.80;;;10.00;99.90;;;;;;5030615;28;20572;-70
2021/10/12 04:06:15;;;;;;;13.17;7.10;;;10.00;99.90;;;;;;5028418;28;20618;-70
2021/10/12 04:09:35;;;;;;;12.93;7.03;;;10.00;99.90;;;;;;5030923;28;20320;-70
2021/10/12 04:12:54;;;;;;;14.80;6.33;;;10.00;99.90;;;;;;5025330;28;20236;-70
2021/10/12 04:16:16;;;;;;;10.23;7.43;;;10.00;99.90;;;;;;5025512;28;20204;-70
2021/10/12 04:19:35;;;;;;;14.13;7.10;;;10.00;99.90;;;;;;5026338;28;20231;-70
2021/10/12 04:22:57;;;;;;;13.20;7.33;;;10.00;99.90;;;;;;5029555;28;20650;-70
2021/10/12 04:26:19;;;;;;;12.00;7.07;;;10.00;99.90;;;;;;5029704;28;20216;-70
2021/10/12 04:29:38;;;;;;;16.60;7.13;;;10.00;99.90;;;;;;5026787;28;20232;-70
2021/10/12 04:32:57;;;;;;;14.23;7.40;;;10.10;99.90;;;;;;5027023;28;20200;-70
2021/10/12 04:36:16;;;;;;;13.50;6.87;;;10.10;99.90;;;;;;5020724;28;20247;-70
2021/10/12 04:39:36;;;;;;;10.00;6.07;;;10.20;99.90;;;;;;5022782;28;20229;-70
2021/10/12 04:42:56;;;;;;;9.93;6.53;;;10.20;99.90;;;;;;5024220;28;20395;-70
2021/10/12 04:46:17;;;;;;;13.40;6.43;;;10.20;99.90;;;;;;5024880;28;20642;-70
2021/10/12 04:49:37;;;;;;;9.23;6.13;;;10.30;99.90;;;;;;5026789;28;20200;-70
2021/10/12 04:52:57;;;;;;;11.50;6.23;;;10.30;99.90;;;;;;5024298;28;20250;-70
2021/10/12 04:56:17;;;;;;;11.87;6.50;;;10.30;99.90;;;;;;5027643;28;20256;-70
2021/10/12 04:59:38;;;;;;;11.37;6.57;;;10.40;99.90;;;;;;5024677;28;20213;-70
2021/10/12 05:02:57;;;;;;;11.33;6.53;;;10.40;99.90;;;;;;5021674;28;20220;-70
2021/10/12 05:06:16;;;;;;;12.47;7.67;;;10.40;99.90;;;;;;5029479;28;20216;-72
2021/10/12 05:09:36;;;;;;;16.10;7.53;;;10.40;99.90;;;;;;5024144;28;20581;-70
2021/10/12 05:12:56;;;;;;;15.10;8.07;;;10.50;99.90;;;;;;5025608;28;20236;-69
2021/10/12 05:16:20;;;;;;;15.47;7.60;;;10.50;99.90;;;;;;5026461;28;20252;-70
2021/10/12 05:19:40;;;;;;;16.07;7.60;;;10.50;99.90;;;;;;5026366;28;20288;-70
2021/10/12 05:23:01;;;;;;;15.87;8.17;;;10.50;99.90;;;;;;5017669;28;20224;-70
2021/10/12 05:26:20;;;;;;;13.77;7.27;;;10.50;99.90;;;;;;5024265;28;20679;-70
2021/10/12 05:29:41;;;;;;;11.00;7.97;;;10.50;99.90;;;;;;5024663;28;21608;-69
2021/10/12 05:33:01;;;;;;;16.50;8.50;;;10.60;99.90;;;;;;5024475;28;20733;-70
2021/10/12 05:36:20;;;;;;;19.80;9.20;;;10.50;99.90;;;;;;5023879;28;20225;-70
2021/10/12 05:39:39;;;;;;;22.07;8.23;;;10.50;99.90;;;;;;5023619;28;20201;-70
2021/10/12 05:42:58;;;;;;;14.87;7.60;;;10.60;99.90;;;;;;5025872;28;20220;-70
2021/10/12 05:46:16;;;;;;;19.33;8.63;;;10.50;99.90;;;;;;5024371;28;20646;-69
2021/10/12 05:49:38;;;;;;;17.27;8.20;;;10.50;99.90;;;;;;5024988;28;20259;-70
2021/10/12 05:53:04;;;;;;;16.27;8.00;;;10.40;99.90;;;;;;5021980;28;20189;-70
2021/10/12 05:56:26;;;;;;;19.83;8.50;;;10.40;99.90;;;;;;5023530;28;20246;-70
2021/10/12 05:59:46;;;;;;;22.90;9.40;;;10.40;99.90;;;;;;5024963;28;20583;-70
2021/10/12 06:03:05;;;;;;;16.77;9.40;;;10.40;99.90;;;;;;5025649;28;20227;-70
2021/10/12 06:06:25;;;;;;;23.63;9.83;;;10.40;99.90;;;;;;5022137;28;20228;-70
2021/10/12 06:09:44;;;;;;;25.93;10.30;;;10.40;99.90;;;;;;5017522;28;20251;-70
2021/10/12 06:13:09;;;;;;;20.77;11.23;;;10.50;99.90;;;;;;5032096;28;20201;-70
2021/10/12 06:16:29;;;;;;;27.30;11.00;;;10.50;99.90;;;;;;5026195;28;20197;-69
2021/10/12 06:19:49;;;;;;;20.60;9.83;;;10.50;99.90;;;;;;5033160;28;20631;-70
2021/10/12 06:23:10;;;;;;;20.07;9.93;;;10.50;99.90;;;;;;5034110;28;20254;-70
2021/10/12 06:26:28;;;;;;;18.83;10.37;;;10.50;99.90;;;;;;5027543;28;20212;-70
2021/10/12 06:29:47;;;;;;;22.87;9.57;;;10.60;99.90;;;;;;5029660;28;20311;-69
2021/10/12 06:33:10;;;;;;;18.70;9.63;;;10.60;99.90;;;;;;5030189;28;20409;-70
2021/10/12 06:36:31;;;;;;;22.40;10.10;;;10.60;99.90;;;;;;5025102;28;20235;-67
2021/10/12 06:39:51;;;;;;;18.60;9.67;;;10.60;99.90;;;;;;5016146;28;20731;-70
2021/10/12 06:43:10;;;;;;;24.13;9.93;;;10.50;99.90;;;;;;5025073;28;20642;-70
2021/10/12 06:46:29;;;;;;;29.33;10.03;;;10.50;99.90;;;;;;5029025;28;20282;-70
2021/10/12 06:49:48;;;;;;;20.57;9.43;;;10.50;99.90;;;;;;5022753;28;20200;-70
2021/10/12 06:53:08;;;;;;;24.33;9.50;;;10.50;99.90;;;;;;5031075;28;20725;-70
2021/10/12 06:56:28;;;;;;;24.43;9.27;;;10.60;99.90;;;;;;5018914;28;20209;-69
2021/10/12 06:59:47;;;;;;;20.57;9.93;;;10.60;99.90;;;;;;5027009;28;20319;-70
2021/10/12 07:03:06;;;;;;;27.53;9.47;;;10.70;99.90;;;;;;5024762;28;20208;-70
2021/10/12 07:05:35;;;;;;;21.10;10.23;;;10.70;99.90;;;;;;5022632;28;20559;-68
2021/10/12 07:08:29;;;;;;;21.73;9.23;;;10.80;99.90;;;;;;5027065;28;20863;-70
2021/10/12 07:10:58;;;;;;;20.77;8.83;;;10.80;99.90;;;;;;5030299;28;20656;-70
2021/10/12 07:13:30;;;;;;;22.43;8.63;;;10.90;99.90;;;;;;5024755;28;20186;-70
2021/10/12 07:16:01;;;;;;;24.17;8.80;;;10.90;99.90;;;;;;5018263;28;20198;-70
2021/10/12 07:18:40;;;;;;;20.57;8.03;;;11.00;99.90;;;;;;4997510;28;20190;-70
2021/10/12 07:21:44;;;;;;;18.97;8.20;;;11.00;99.90;;;;;;5024398;28;20220;-70
2021/10/12 07:24:16;;;;;;;19.93;8.17;;;11.10;99.90;;;;;;5024542;28;20209;-69
2021/10/12 07:27:21;;;;;;;20.27;8.23;;;11.20;99.90;;;;;;5027441;28;20684;-70
2021/10/12 07:29:54;;;;;;;19.67;8.07;;;11.30;99.90;;;;;;5027161;28;20193;-70
2021/10/12 07:32:47;;;;;;;16.90;8.40;;;11.30;99.90;;;;;;5031173;28;20679;-70
2021/10/12 07:35:15;;;;;;;16.20;7.07;;;11.40;99.90;;;;;;5028237;28;20215;-70
2021/10/12 07:37:56;;;;;;;17.33;7.10;;;11.50;99.90;;;;;;5013947;28;20764;-70
2021/10/12 07:41:12;;;;;;;21.13;7.60;;;11.60;99.90;;;;;;5033440;28;20203;-70
2021/10/12 07:44:21;;;;;;;14.77;7.13;;;11.70;99.90;;;;;;5030712;28;20565;-70
2021/10/12 07:47:32;;;;;;;18.37;6.93;;;11.80;99.90;;;;;;5027321;28;20232;-69
2021/10/12 07:50:04;;;;;;;15.37;6.40;;;11.90;99.90;;;;;;5014342;28;20744;-70
2021/10/12 07:52:35;;;;;;;16.70;6.43;;;12.00;99.90;;;;;;5029145;28;20657;-70
2021/10/12 07:55:14;;;;;;;17.33;6.77;;;12.00;99.90;;;;;;5015000;28;20209;-70
2021/10/12 07:57:44;;;;;;;19.37;7.00;;;12.10;99.90;;;;;;5012190;28;20255;-70
2021/10/12 08:00:48;;;;;;;19.93;6.43;;;12.10;99.90;;;;;;5025261;28;20594;-70
2021/10/12 08:03:20;;;;;;;15.47;6.63;;;12.10;99.90;;;;;;5027734;28;20195;-70
2021/10/12 08:05:53;;;;;;;14.97;6.10;;;12.20;99.90;;;;;;5026035;28;20736;-70
2021/10/12 08:09:01;;;;;;;14.57;6.67;;;12.10;99.90;;;;;;5021643;28;20185;-70
2021/10/12 08:11:50;;;;;;;8.53;5.80;;;12.10;99.90;;;;;;5010790;28;20182;-70
2021/10/12 08:14:52;;;;;;;13.00;6.13;;;12.20;99.90;;;;;;5028531;28;20196;-70
2021/10/12 08:17:20;;;;;;;13.30;6.07;;;12.20;99.90;;;;;;5026661;28;20197;-70
2021/10/12 08:20:15;;;;;;;22.83;6.00;;;12.30;99.90;;;;;;5027393;28;20190;-72
2021/10/12 08:23:16;;;;;;;16.23;5.37;;;12.50;99.90;;;;;;5028438;28;20276;-70
2021/10/12 08:25:59;;;;;;;15.50;5.60;;;12.60;99.90;;;;;;5014193;28;20671;-70
2021/10/12 08:28:55;;;;;;;16.83;5.67;;;12.70;99.90;;;;;;5024638;28;20747;-70
2021/10/12 08:31:25;;;;;;;16.83;5.30;;;12.80;99.90;;;;;;5025539;28;20683;-68
2021/10/12 08:34:19;;;;;;;13.80;5.43;;;12.80;99.90;;;;;;5027616;28;20185;-70
2021/10/12 08:36:50;;;;;;;20.27;5.67;;;13.00;99.90;;;;;;5027700;28;20196;-70
2021/10/12 08:39:19;;;;;;;20.73;5.80;;;13.00;99.90;;;;;;5034657;28;20264;-70
2021/10/12 08:41:58;;;;;;;18.20;5.63;;;13.10;99.90;;;;;;5009047;28;20270;-70
2021/10/12 08:44:50;;;;;;;16.13;5.80;;;13.10;99.90;;;;;;5006775;28;20236;-70
2021/10/12 08:47:19;;;;;;;11.30;5.50;;;13.30;99.90;;;;;;5014660;28;20592;-71
2021/10/12 08:50:29;;;;;;;16.87;5.57;;;13.40;99.90;;;;;;5028592;28;20443;-70
2021/10/12 08:53:11;;;;;;;13.40;5.17;;;13.70;99.90;;;;;;5011078;28;20201;-70
2021/10/12 08:56:25;;;;;;;14.87;5.63;;;13.90;99.90;;;;;;5022130;28;20494;-70
2021/10/12 08:59:21;;;;;;;14.47;5.27;;;14.10;99.90;;;;;;5029421;28;20193;-70
2021/10/12 09:01:59;;;;;;;14.33;4.97;;;14.40;99.90;;;;;;5025291;28;20197;-70
2021/10/12 09:04:43;;;;;;;12.43;4.80;;;14.70;99.90;;;;;;5002337;28;20652;-70
2021/10/12 09:07:19;;;;;;;13.43;4.77;;;15.00;99.90;;;;;;5006793;28;20202;-71
2021/10/12 09:10:05;;;;;;;14.53;4.73;;;15.10;99.90;;;;;;5008154;28;20194;-70
2021/10/12 09:12:45;;;;;;;10.03;4.87;;;15.10;99.90;;;;;;5031500;28;20203;-70
2021/10/12 09:15:14;;;;;;;15.93;4.73;;;15.10;99.90;;;;;;5008804;28;20182;-70
2021/10/12 09:18:24;;;;;;;13.33;4.57;;;15.10;99.90;;;;;;5026806;28;20663;-70
2021/10/12 09:20:53;;;;;;;13.93;5.07;;;15.10;99.90;;;;;;5033157;28;20198;-70
2021/10/12 09:24:09;;;;;;;12.00;4.27;;;15.30;99.90;;;;;;5027160;28;20199;-70
2021/10/12 09:26:41;;;;;;;8.20;4.27;;;15.30;99.90;;;;;;5030544;28;20687;-70
2021/10/12 09:29:48;;;;;;;13.87;4.43;;;15.20;99.90;;;;;;5023384;28;20202;-70
2021/10/12 09:32:22;;;;;;;17.60;5.10;;;15.20;99.90;;;;;;5026803;28;20217;-70
2021/10/12 09:35:02;;;;;;;13.10;4.50;;;15.00;99.90;;;;;;5013441;28;20184;-70
2021/10/12 09:37:31;;;;;;;12.93;4.90;;;14.90;99.90;;;;;;5032293;28;20476;-70
2021/10/12 09:40:20;;;;;;;9.67;4.53;;;15.00;99.90;;;;;;5030399;28;20536;-70
2021/10/12 09:42:50;;;;;;;15.07;4.90;;;15.10;99.90;;;;;;5022820;28;20189;-70
2021/10/12 09:45:59;;;;;;;16.00;4.57;;;15.20;99.90;;;;;;5025879;28;20234;-70
2021/10/12 09:48:30;;;;;;;11.20;4.57;;;15.40;99.90;;;;;;5025398;28;20228;-70
2021/10/12 09:51:08;;;;;;;12.60;4.93;;;15.50;99.90;;;;;;5010239;28;20700;-70
2021/10/12 09:54:20;;;;;;;9.53;4.50;;;15.80;99.90;;;;;;5010771;28;20552;-70
2021/10/12 09:56:50;;;;;;;17.07;4.93;;;16.10;99.90;;;;;;5017223;28;20346;-70
2021/10/12 09:59:20;;;;;;;8.87;3.70;;;16.30;99.90;;;;;;5024472;28;20218;-70
2021/10/12 10:01:49;;;;;;;10.40;4.83;;;16.30;99.90;;;;;;5019428;28;20194;-68
2021/10/12 10:04:19;;;;;;;7.13;3.83;;;16.20;99.90;;;;;;5026665;28;20196;-70
2021/10/12 10:06:49;;;;;;;10.90;3.73;;;16.10;99.90;;;;;;5025404;28;20221;-70
2021/10/12 10:09:21;;;;;;;11.80;4.50;;;15.90;99.90;;;;;;5016490;28;20228;-69
2021/10/12 10:11:50;;;;;;;11.50;4.73;;;15.90;99.90;;;;;;5022680;28;20204;-70
2021/10/12 10:14:20;;;;;;;13.03;3.97;;;16.10;99.90;;;;;;5025455;28;20464;-70
2021/10/12 10:16:52;;;;;;;10.97;4.27;;;16.10;99.90;;;;;;5022075;28;20267;-70
2021/10/12 10:19:25;;;;;;;14.10;4.83;;;16.20;99.90;;;;;;5022572;28;20194;-70
2021/10/12 10:21:55;;;;;;;8.10;4.13;;;16.20;99.90;;;;;;5024039;28;20279;-70
2021/10/12 10:24:48;;;;;;;12.60;4.60;;;16.20;99.90;;;;;;5016396;28;20572;-70
2021/10/12 10:27:32;;;;;;;9.40;4.10;;;16.10;99.90;;;;;;5025585;28;20201;-70
2021/10/12 10:30:26;;;;;;;9.47;4.20;;;16.10;99.90;;;;;;5018149;28;20200;-70
2021/10/12 10:32:58;;;;;;;15.97;4.73;;;16.00;99.90;;;;;;5022482;28;20254;-70
2021/10/12 10:35:41;;;;;;;14.20;4.73;;;15.90;99.90;;;;;;5024464;28;20190;-70
2021/10/12 10:38:42;;;;;;;11.27;4.80;;;15.70;99.90;;;;;;5026976;28;20277;-70
2021/10/12 10:41:27;;;;;;;9.63;4.60;;;15.90;99.90;;;;;;5026929;28;20205;-70
2021/10/12 10:43:58;;;;;;;12.20;4.03;;;15.70;99.90;;;;;;5027376;28;20221;-70
2021/10/12 10:46:41;;;;;;;6.80;3.90;;;15.60;99.90;;;;;;5023048;28;20708;-71
2021/10/12 10:49:13;;;;;;;10.17;4.40;;;15.50;99.90;;;;;;5023167;28;20206;-70
2021/10/12 10:51:55;;;;;;;7.10;4.00;;;15.40;99.90;;;;;;5023580;28;20564;-70
2021/10/12 10:55:03;;;;;;;8.73;4.00;;;15.50;99.90;;;;;;5000700;28;20634;-70
2021/10/12 10:57:33;;;;;;;10.53;4.00;;;15.70;99.90;;;;;;5023779;28;20193;-70
2021/10/12 11:00:42;;;;;;;12.20;4.17;;;15.70;99.90;;;;;;5025635;28;20189;-70
2021/10/12 11:03:39;;;;;;;13.17;4.80;;;15.60;99.90;;;;;;5018204;28;20224;-69
2021/10/12 11:06:14;;;;;;;9.30;4.13;;;15.70;99.90;;;;;;5023454;28;20222;-70
2021/10/12 11:08:56;;;;;;;9.60;4.53;;;15.90;99.90;;;;;;5023190;28;20191;-70
2021/10/12 11:11:25;;;;;;;8.03;3.50;;;16.20;99.90;;;;;;5026172;28;20261;-70
2021/10/12 11:13:54;;;;;;;7.90;3.13;;;16.60;99.90;;;;;;5025188;28;20660;-70
2021/10/12 11:16:22;;;;;;;8.60;2.87;;;16.90;99.90;;;;;;5025101;28;20669;-70
2021/10/12 11:19:01;;;;;;;11.67;3.30;;;16.80;99.90;;;;;;5028976;28;20194;-71
2021/10/12 11:21:30;;;;;;;4.47;2.33;;;16.70;99.90;;;;;;5032017;28;20196;-71
2021/10/12 11:24:00;;;;;;;7.23;2.50;;;16.60;99.90;;;;;;5026530;28;20659;-70
2021/10/12 11:26:29;;;;;;;7.43;2.63;;;16.60;99.90;;;;;;5025761;28;20221;-70
2021/10/12 11:29:02;;;;;;;3.30;2.23;;;16.60;99.90;;;;;;5025512;28;20254;-70
2021/10/12 11:31:32;;;;;;;6.13;2.77;;;16.50;99.90;;;;;;5024727;28;20654;-70
2021/10/12 11:34:03;;;;;;;5.30;2.47;;;16.40;99.90;;;;;;5026037;28;20213;-71
2021/10/12 11:36:34;;;;;;;7.20;2.60;;;16.20;99.90;;;;;;5011119;28;20272;-70
2021/10/12 11:39:06;;;;;;;5.17;2.63;;;16.00;99.90;;;;;;5025389;28;20198;-70
2021/10/12 11:41:36;;;;;;;5.43;2.37;;;15.90;99.90;;;;;;5027895;28;20197;-70
2021/10/12 11:44:16;;;;;;;3.97;2.37;;;15.70;99.90;;;;;;5023844;28;20240;-71
2021/10/12 11:46:46;;;;;;;6.60;2.60;;;15.50;99.90;;;;;;5019778;28;20233;-70
2021/10/12 11:49:20;;;;;;;7.00;2.77;;;15.40;99.90;;;;;;5030261;28;20201;-71
2021/10/12 11:51:50;;;;;;;6.27;2.63;;;15.40;99.90;;;;;;5023871;28;20195;-72
2021/10/12 11:54:23;;;;;;;9.20;2.70;;;15.30;99.90;;;;;;5020392;28;20205;-71
2021/10/12 11:56:52;;;;;;;8.87;2.97;;;15.30;99.90;;;;;;5028912;28;20190;-71
2021/10/12 11:59:21;;;;;;;6.20;2.70;;;15.30;99.90;;;;;;5025386;28;20216;-71
2021/10/12 12:01:50;;;;;;;7.73;2.83;;;15.30;99.90;;;;;;5028427;28;20247;-71
2021/10/12 12:04:29;;;;;;;7.23;2.80;;;15.30;99.90;;;;;;5023239;28;20193;-71
2021/10/12 12:06:59;;;;;;;8.80;2.67;;;15.30;99.90;;;;;;5022159;28;20223;-70
2021/10/12 12:09:29;;;;;;;4.43;2.67;;;15.40;99.90;;;;;;5024486;28;20699;-71
2021/10/12 12:12:00;;;;;;;8.03;3.07;;;15.50;99.90;;;;;;5027931;28;20202;-70
2021/10/12 12:14:29;;;;;;;8.20;2.87;;;15.50;99.90;;;;;;5024159;28;20189;-70
2021/10/12 12:17:08;;;;;;;11.80;3.10;;;15.60;99.90;;;;;;5027659;28;20193;-71
2021/10/12 12:19:44;;;;;;;6.33;3.20;;;15.60;99.90;;;;;;5030694;28;20244;-71
2021/10/12 12:22:15;;;;;;;5.30;2.80;;;15.80;99.90;;;;;;5030118;28;20189;-70
2021/10/12 12:24:54;;;;;;;11.43;3.07;;;16.00;99.90;;;;;;5025836;28;20190;-71
2021/10/12 12:27:23;;;;;;;9.30;3.43;;;16.30;99.90;;;;;;5032631;28;20267;-70
2021/10/12 12:30:04;;;;;;;8.30;3.10;;;16.20;99.90;;;;;;5022947;28;20210;-71
2021/10/12 12:32:33;;;;;;;8.73;3.20;;;16.10;99.90;;;;;;5029189;28;20252;-71
2021/10/12 12:35:05;;;;;;;6.03;2.90;;;15.90;99.90;;;;;;5028118;28;20194;-71
2021/10/12 12:37:36;;;;;;;5.67;2.53;;;15.80;99.90;;;;;;5032492;28;20194;-71
2021/10/12 12:40:23;;;;;;;5.33;2.80;;;15.70;99.90;;;;;;5031436;28;20190;-71
2021/10/12 12:42:51;;;;;;;8.60;3.10;;;15.50;99.90;;;;;;5028825;28;20205;-71
2021/10/12 12:45:22;;;;;;;10.17;3.77;;;15.40;99.90;;;;;;5031323;28;20193;-70
2021/10/12 12:47:52;;;;;;;8.47;3.13;;;15.40;99.90;;;;;;5025602;28;20241;-71
2021/10/12 12:50:28;;;;;;;7.10;3.33;;;15.20;99.90;;;;;;5028438;28;20198;-71
2021/10/12 12:52:58;;;;;;;5.27;3.23;;;15.10;99.90;;;;;;5029413;28;20205;-71
2021/10/12 12:55:32;;;;;;;4.43;3.20;;;15.10;99.90;;;;;;5023502;28;20192;-71
2021/10/12 12:58:00;;;;;;;7.63;3.20;;;15.20;99.90;;;;;;5027967;28;20201;-71
2021/10/12 13:00:29;;;;;;;8.03;3.57;;;15.40;99.90;;;;;;5031733;28;20190;-71
2021/10/12 13:02:59;;;;;;;7.13;3.33;;;15.50;99.90;;;;;;5027506;28;20673;-71
2021/10/12 13:05:30;;;;;;;6.00;3.00;;;15.60;99.90;;;;;;5035445;28;20193;-71
2021/10/12 13:07:58;;;;;;;6.97;3.10;;;15.80;99.90;;;;;;5029887;28;20304;-70
2021/10/12 13:10:27;;;;;;;7.13;2.80;;;15.90;99.90;;;;;;5026360;28;20253;-71
2021/10/12 13:12:56;;;;;;;6.67;2.63;;;15.90;99.90;;;;;;5009256;28;20195;-71
2021/10/12 13:15:25;;;;;;;4.53;2.87;;;15.80;99.90;;;;;;5024297;28;20224;-71
2021/10/12 13:17:54;;;;;;;6.73;3.20;;;15.70;99.90;;;;;;5043536;28;20191;-71
2021/10/12 13:20:24;;;;;;;8.00;3.47;;;15.70;99.90;;;;;;5030209;28;20233;-70
2021/10/12 13:22:55;;;;;;;7.40;3.53;;;15.60;99.90;;;;;;5032005;28;20207;-71
2021/10/12 13:25:23;;;;;;;10.63;2.93;;;15.50;99.90;;;;;;5027470;28;20205;-70
2021/10/12 13:27:52;;;;;;;5.80;2.80;;;15.40;99.90;;;;;;5026565;28;20580;-70
2021/10/12 13:30:20;;;;;;;7.57;3.43;;;15.40;99.90;;;;;;5027235;28;20198;-70
2021/10/12 13:32:51;;;;;;;11.57;3.40;;;15.30;99.90;;;;;;5028919;28;20208;-71
2021/10/12 13:35:20;;;;;;;7.33;3.00;;;15.00;99.90;;;;;;5030212;28;20251;-71
2021/10/12 13:37:49;;;;;;;7.50;3.20;;;14.90;99.90;;;;;;5020042;28;20190;-71
2021/10/12 13:40:18;;;;;;;7.23;3.10;;;14.80;99.90;;;;;;5025074;28;20198;-70
2021/10/12 13:42:47;;;;;;;5.77;3.10;;;14.80;99.90;;;;;;5028534;28;20189;-70
2021/10/12 13:45:16;;;;;;;9.00;3.47;;;14.70;99.90;;;;;;5026808;28;20193;-70
2021/10/12 13:47:46;;;;;;;7.50;3.47;;;14.60;99.90;;;;;;5023443;28;20232;-71
2021/10/12 13:50:16;;;;;;;8.07;3.90;;;14.60;99.90;;;;;;5021881;28;20657;-71
2021/10/12 13:52:47;;;;;;;6.30;3.87;;;14.70;99.90;;;;;;5024253;28;20196;-71
2021/10/12 13:55:16;;;;;;;13.80;4.23;;;14.80;99.90;;;;;;5025746;28;20256;-70
2021/10/12 13:57:46;;;;;;;7.63;3.40;;;14.90;99.90;;;;;;5025174;28;20193;-71
2021/10/12 14:00:19;;;;;;;9.30;3.37;;;15.10;99.90;;;;;;5025418;28;20194;-70
2021/10/12 14:02:51;;;;;;;10.07;3.30;;;15.10;99.90;;;;;;5024553;28;21101;-71
2021/10/12 14:05:20;;;;;;;6.77;3.60;;;15.00;99.90;;;;;;5026555;28;20203;-70
2021/10/12 14:07:48;;;;;;;13.67;5.20;;;15.10;99.90;;;;;;5023732;28;20307;-70
2021/10/12 14:10:17;;;;;;;8.23;3.87;;;15.20;99.90;;;;;;5030308;28;20194;-69
2021/10/12 14:12:47;;;;;;;11.00;3.40;;;15.20;99.90;;;;;;5030083;28;20200;-70
2021/10/12 14:15:17;;;;;;;7.97;3.17;;;15.30;99.90;;;;;;5027587;28;20927;-71
2021/10/12 14:17:45;;;;;;;11.23;3.93;;;15.20;99.90;;;;;;5028660;28;20190;-70
2021/10/12 14:20:15;;;;;;;6.00;3.70;;;15.10;99.90;;;;;;5027987;28;20213;-71
2021/10/12 14:22:43;;;;;;;8.80;3.80;;;15.00;99.90;;;;;;5029108;28;20555;-70
2021/10/12 14:25:12;;;;;;;11.20;3.93;;;15.00;99.90;;;;;;5030214;28;20271;-71
2021/10/12 14:27:40;;;;;;;10.07;3.90;;;14.90;99.90;;;;;;5019806;28;20209;-71
2021/10/12 14:30:11;;;;;;;8.97;4.13;;;14.80;99.90;;;;;;5029628;28;20851;-70
2021/10/12 14:32:40;;;;;;;9.40;4.57;;;14.80;99.90;;;;;;5027426;28;20201;-69
2021/10/12 14:35:09;;;;;;;6.93;4.13;;;14.90;99.90;;;;;;5028503;28;20197;-70
2021/10/12 14:37:38;;;;;;;11.37;4.33;;;14.90;99.90;;;;;;5022251;28;21637;-70
2021/10/12 14:40:09;;;;;;;11.57;4.03;;;14.90;99.90;;;;;;5021445;28;20292;-70
2021/10/12 14:42:38;;;;;;;7.80;3.80;;;14.80;99.90;;;;;;5021271;28;20592;-70
2021/10/12 14:45:07;;;;;;;10.67;4.50;;;14.70;99.90;;;;;;5019601;28;20190;-70
2021/10/12 14:47:37;;;;;;;7.50;4.23;;;14.60;99.90;;;;;;5023680;28;20233;-72
2021/10/12 14:50:09;;;;;;;8.23;4.37;;;14.70;99.90;;;;;;5030773;28;20197;-70
2021/10/12 14:52:38;;;;;;;6.17;3.90;;;14.80;99.90;;;;;;5031816;28;20190;-70
2021/10/12 14:55:07;;;;;;;6.97;4.07;;;14.90;99.90;;;;;;5029056;28;20205;-70
2021/10/12 14:57:36;;;;;;;8.63;4.43;;;15.00;99.90;;;;;;5034635;28;20532;-70